Time,TemperatureF,DewpointF,PressureIn,WindDirection,WindDirectionDegrees,WindSpeedMPH,WindSpeedGustMPH,Humidity,HourlyPrecipIn,Conditions,Clouds,dailyrainin,SoftwareType,DateUTC
2013-05-30 00:02:00,71.7,65.2,30.08,SSE,159,0.0,0.0,80,0.00,,,0.00,Wunderground v.1.15,2013-05-30 04:02:00,
2013-05-30 00:04:00,71.7,64.8,30.08,SSE,159,0.0,0.0,79,0.00,,,0.00,Wunderground v.1.15,2013-05-30 04:04:00,
2013-05-30 00:06:00,71.6,65.1,30.08,SSE,159,0.0,0.0,80,0.00,,,0.00,Wunderground v.1.15,2013-05-30 04:06:00,
2013-05-30 00:10:00,71.4,64.9,30.08,SSE,159,0.0,0.0,80,0.00,,,0.00,Wunderground v.1.15,2013-05-30 04:10:00,
2013-05-30 00:12:00,71.3,65.2,30.08,SSE,159,0.0,0.0,81,0.00,,,0.00,Wunderground v.1.15,2013-05-30 04:12:00,
2013-05-30 00:16:00,71.3,65.2,30.08,SSE,159,0.0,0.0,81,0.00,,,0.00,Wunderground v.1.15,2013-05-30 04:16:00,
2013-05-30 00:20:00,70.8,65.0,30.08,SSE,159,0.0,0.0,82,0.00,,,0.00,Wunderground v.1.15,2013-05-30 04:20:00,
2013-05-30 00:22:00,70.5,64.7,30.08,SSE,159,0.0,0.0,82,0.00,,,0.00,Wunderground v.1.15,2013-05-30 04:22:00,
2013-05-30 00:24:00,70.1,64.7,30.08,SSE,159,0.0,0.0,83,0.00,,,0.00,Wunderground v.1.15,2013-05-30 04:24:00,
2013-05-30 00:28:00,69.6,64.5,30.08,SSE,159,0.0,0.0,84,0.00,,,0.00,Wunderground v.1.15,2013-05-30 04:28:00,
2013-05-30 00:30:00,69.5,64.8,30.08,SSE,159,0.0,0.0,85,0.00,,,0.00,Wunderground v.1.15,2013-05-30 04:30:00,
2013-05-30 00:32:00,69.4,64.7,30.08,SSE,159,0.0,0.0,85,0.00,,,0.00,Wunderground v.1.15,2013-05-30 04:32:00,
2013-05-30 00:34:00,69.4,64.7,30.08,SSE,159,0.0,0.0,85,0.00,,,0.00,Wunderground v.1.15,2013-05-30 04:34:00,
2013-05-30 00:38:00,69.7,65.0,30.08,SSE,159,0.0,0.0,85,0.00,,,0.00,Wunderground v.1.15,2013-05-30 04:38:00,
2013-05-30 00:40:00,69.8,65.1,30.08,SSE,159,0.0,0.0,85,0.00,,,0.00,Wunderground v.1.15,2013-05-30 04:40:00,
2013-05-30 00:42:00,70.0,65.3,30.08,SSE,159,0.0,0.0,85,0.00,,,0.00,Wunderground v.1.15,2013-05-30 04:42:00,
2013-05-30 00:48:00,70.3,65.6,30.08,SSE,159,0.0,0.0,85,0.00,,,0.00,Wunderground v.1.15,2013-05-30 04:48:00,
2013-05-30 00:49:00,70.3,65.2,30.08,SSE,159,0.0,0.0,84,0.00,,,0.00,Wunderground v.1.15,2013-05-30 04:49:00,
2013-05-30 00:51:00,70.4,65.3,30.08,SSE,159,0.0,0.0,84,0.00,,,0.00,Wunderground v.1.15,2013-05-30 04:51:00,
2013-05-30 00:54:00,70.4,65.3,30.08,SSE,159,0.0,0.0,84,0.00,,,0.00,Wunderground v.1.15,2013-05-30 04:54:00,
2013-05-30 00:56:00,70.3,65.2,30.08,SSE,159,0.0,0.0,84,0.00,,,0.00,Wunderground v.1.15,2013-05-30 04:56:00,
2013-05-30 00:59:00,69.9,65.2,30.08,SSE,159,0.0,0.0,85,0.00,,,0.00,Wunderground v.1.15,2013-05-30 04:59:00,
2013-05-30 01:01:00,69.4,64.7,30.08,SSE,159,0.0,0.0,85,0.00,,,0.00,Wunderground v.1.15,2013-05-30 05:01:00,
2013-05-30 01:04:00,69.1,64.7,30.08,North,32767,-999.0,0.0,86,0.00,,,0.00,Wunderground v.1.15,2013-05-30 05:04:00,
2013-05-30 01:06:00,68.7,64.7,30.08,North,32767,-999.0,0.0,87,0.00,,,0.00,Wunderground v.1.15,2013-05-30 05:06:00,
2013-05-30 01:08:00,68.3,64.3,30.08,North,32767,-999.0,0.0,87,0.00,,,0.00,Wunderground v.1.15,2013-05-30 05:08:00,
2013-05-30 01:10:00,68.0,64.3,30.08,North,32767,-999.0,0.0,88,0.00,,,0.00,Wunderground v.1.15,2013-05-30 05:10:00,
2013-05-30 01:12:00,67.8,64.4,30.08,North,32767,-999.0,0.0,89,0.00,,,0.00,Wunderground v.1.15,2013-05-30 05:12:00,
2013-05-30 01:14:00,67.7,64.3,30.08,North,32767,-999.0,0.0,89,0.00,,,0.00,Wunderground v.1.15,2013-05-30 05:14:00,
2013-05-30 01:16:00,67.9,64.9,30.09,North,32767,-999.0,0.0,90,0.00,,,0.00,Wunderground v.1.15,2013-05-30 05:16:00,
2013-05-30 01:18:00,68.1,65.1,30.09,North,32767,-999.0,0.0,90,0.00,,,0.00,Wunderground v.1.15,2013-05-30 05:18:00,
2013-05-30 01:22:00,68.5,65.1,30.08,North,32767,-999.0,0.0,89,0.00,,,0.00,Wunderground v.1.15,2013-05-30 05:22:00,
2013-05-30 01:24:00,68.7,65.0,30.09,North,32767,-999.0,0.0,88,0.00,,,0.00,Wunderground v.1.15,2013-05-30 05:24:00,
2013-05-30 01:28:00,69.1,65.4,30.09,North,32767,-999.0,0.0,88,0.00,,,0.00,Wunderground v.1.15,2013-05-30 05:28:00,
2013-05-30 01:32:00,69.1,65.1,30.09,North,32767,-999.0,0.0,87,0.00,,,0.00,Wunderground v.1.15,2013-05-30 05:32:00,
2013-05-30 01:34:00,69.1,65.1,30.09,North,32767,-999.0,0.0,87,0.00,,,0.00,Wunderground v.1.15,2013-05-30 05:34:00,
2013-05-30 01:36:00,69.1,65.1,30.09,North,32767,-999.0,0.0,87,0.00,,,0.00,Wunderground v.1.15,2013-05-30 05:36:00,
2013-05-30 01:40:00,69.2,65.2,30.09,North,32767,-999.0,0.0,87,0.00,,,0.00,Wunderground v.1.15,2013-05-30 05:40:00,
2013-05-30 01:42:00,69.2,65.2,30.09,North,32767,-999.0,0.0,87,0.00,,,0.00,Wunderground v.1.15,2013-05-30 05:42:00,
2013-05-30 01:44:00,69.2,65.2,30.09,North,32767,-999.0,0.0,87,0.00,,,0.00,Wunderground v.1.15,2013-05-30 05:44:00,
2013-05-30 01:48:00,69.2,65.2,30.09,North,32767,-999.0,0.0,87,0.00,,,0.00,Wunderground v.1.15,2013-05-30 05:48:00,
2013-05-30 01:51:00,69.0,64.6,30.09,North,32767,-999.0,0.0,86,0.00,,,0.00,Wunderground v.1.15,2013-05-30 05:51:00,
2013-05-30 01:54:00,68.3,63.9,30.09,North,32767,-999.0,0.0,86,0.00,,,0.00,Wunderground v.1.15,2013-05-30 05:54:00,
2013-05-30 01:58:00,67.6,63.9,30.09,North,32767,-999.0,0.0,88,0.00,,,0.00,Wunderground v.1.15,2013-05-30 05:58:00,
2013-05-30 02:00:00,67.3,63.6,30.09,North,32767,-999.0,0.0,88,0.00,,,0.00,Wunderground v.1.15,2013-05-30 06:00:00,
2013-05-30 02:06:00,66.7,63.7,30.10,North,32767,-999.0,0.0,90,0.00,,,0.00,Wunderground v.1.15,2013-05-30 06:06:00,
2013-05-30 02:08:00,66.6,63.9,30.10,North,32767,-999.0,0.0,91,0.00,,,0.00,Wunderground v.1.15,2013-05-30 06:08:00,
2013-05-30 02:12:00,66.3,63.6,30.09,North,32767,-999.0,0.0,91,0.00,,,0.00,Wunderground v.1.15,2013-05-30 06:12:00,
2013-05-30 02:14:00,66.2,63.8,30.10,North,32767,-999.0,0.0,92,0.00,,,0.00,Wunderground v.1.15,2013-05-30 06:14:00,
2013-05-30 02:16:00,66.0,63.6,30.10,North,32767,-999.0,0.0,92,0.00,,,0.00,Wunderground v.1.15,2013-05-30 06:16:00,
2013-05-30 02:18:00,66.0,63.9,30.10,North,32767,-999.0,0.0,93,0.00,,,0.00,Wunderground v.1.15,2013-05-30 06:18:00,
2013-05-30 02:22:00,65.9,63.8,30.10,North,32767,-999.0,0.0,93,0.00,,,0.00,Wunderground v.1.15,2013-05-30 06:22:00,
2013-05-30 02:23:00,65.8,63.7,30.10,North,32767,-999.0,0.0,93,0.00,,,0.00,Wunderground v.1.15,2013-05-30 06:23:00,
2013-05-30 02:26:00,65.7,63.6,30.10,North,32767,-999.0,0.0,93,0.00,,,0.00,Wunderground v.1.15,2013-05-30 06:26:00,
2013-05-30 02:32:00,65.6,63.5,30.10,North,32767,-999.0,0.0,93,0.00,,,0.00,Wunderground v.1.15,2013-05-30 06:32:00,
2013-05-30 02:34:00,65.6,63.8,30.10,North,32767,-999.0,0.0,94,0.00,,,0.00,Wunderground v.1.15,2013-05-30 06:34:00,
2013-05-30 02:35:00,65.5,63.7,30.10,North,32767,-999.0,0.0,94,0.00,,,0.00,Wunderground v.1.15,2013-05-30 06:35:00,
2013-05-30 02:38:00,65.4,63.6,30.10,North,32767,-999.0,0.0,94,0.00,,,0.00,Wunderground v.1.15,2013-05-30 06:38:00,
2013-05-30 02:42:00,65.2,63.1,30.10,North,32767,-999.0,0.0,93,0.00,,,0.00,Wunderground v.1.15,2013-05-30 06:42:00,
2013-05-30 02:44:00,65.1,63.3,30.09,North,32767,-999.0,0.0,94,0.00,,,0.00,Wunderground v.1.15,2013-05-30 06:44:00,
2013-05-30 02:46:00,65.0,63.2,30.09,North,32767,-999.0,0.0,94,0.00,,,0.00,Wunderground v.1.15,2013-05-30 06:46:00,
2013-05-30 02:48:00,65.1,63.3,30.09,North,32767,-999.0,0.0,94,0.00,,,0.00,Wunderground v.1.15,2013-05-30 06:48:00,
2013-05-30 02:51:00,65.2,63.4,30.10,North,32767,-999.0,0.0,94,0.00,,,0.00,Wunderground v.1.15,2013-05-30 06:51:00,
2013-05-30 02:54:00,65.2,63.4,30.10,North,32767,-999.0,0.0,94,0.00,,,0.00,Wunderground v.1.15,2013-05-30 06:54:00,
2013-05-30 02:58:00,65.3,63.8,30.10,North,32767,-999.0,0.0,95,0.00,,,0.00,Wunderground v.1.15,2013-05-30 06:58:00,
2013-05-30 03:01:00,65.4,63.9,30.10,North,32767,-999.0,0.0,95,0.00,,,0.00,Wunderground v.1.15,2013-05-30 07:01:00,
2013-05-30 03:06:00,65.6,64.1,30.10,North,32767,-999.0,0.0,95,0.00,,,0.00,Wunderground v.1.15,2013-05-30 07:06:00,
2013-05-30 03:10:00,65.7,64.2,30.10,North,32767,-999.0,0.0,95,0.00,,,0.00,Wunderground v.1.15,2013-05-30 07:10:00,
2013-05-30 03:12:00,65.8,64.3,30.10,North,32767,-999.0,0.0,95,0.00,,,0.00,Wunderground v.1.15,2013-05-30 07:12:00,
2013-05-30 03:16:00,65.9,64.4,30.10,North,32767,-999.0,0.0,95,0.00,,,0.00,Wunderground v.1.15,2013-05-30 07:16:00,
2013-05-30 03:18:00,66.0,64.5,30.10,North,32767,-999.0,0.0,95,0.00,,,0.00,Wunderground v.1.15,2013-05-30 07:18:00,
2013-05-30 03:22:00,66.2,64.7,30.10,North,32767,-999.0,0.0,95,0.00,,,0.00,Wunderground v.1.15,2013-05-30 07:22:00,
2013-05-30 03:24:00,66.2,64.7,30.10,North,32767,-999.0,0.0,95,0.00,,,0.00,Wunderground v.1.15,2013-05-30 07:24:00,
2013-05-30 03:26:00,66.3,64.8,30.10,North,32767,-999.0,0.0,95,0.00,,,0.00,Wunderground v.1.15,2013-05-30 07:26:00,
2013-05-30 03:30:00,66.5,65.3,30.10,North,32767,-999.0,0.0,96,0.00,,,0.00,Wunderground v.1.15,2013-05-30 07:30:00,
2013-05-30 03:36:00,66.6,65.1,30.10,North,32767,-999.0,0.0,95,0.00,,,0.00,Wunderground v.1.15,2013-05-30 07:36:00,
2013-05-30 03:38:00,66.7,65.2,30.10,North,32767,-999.0,0.0,95,0.00,,,0.00,Wunderground v.1.15,2013-05-30 07:38:00,
2013-05-30 03:42:00,66.7,65.2,30.10,North,32767,-999.0,0.0,95,0.00,,,0.00,Wunderground v.1.15,2013-05-30 07:42:00,
2013-05-30 03:46:00,66.7,65.2,30.10,North,32767,-999.0,0.0,95,0.00,,,0.00,Wunderground v.1.15,2013-05-30 07:46:00,
2013-05-30 03:48:00,66.7,65.2,30.10,North,32767,-999.0,0.0,95,0.00,,,0.00,Wunderground v.1.15,2013-05-30 07:48:00,
2013-05-30 03:54:00,66.6,64.8,30.10,North,32767,-999.0,0.0,94,0.00,,,0.00,Wunderground v.1.15,2013-05-30 07:54:00,
2013-05-30 03:56:00,66.6,64.8,30.10,North,32767,-999.0,0.0,94,0.00,,,0.00,Wunderground v.1.15,2013-05-30 07:56:00,
2013-05-30 03:58:00,66.6,64.8,30.10,North,32767,-999.0,0.0,94,0.00,,,0.00,Wunderground v.1.15,2013-05-30 07:58:00,
2013-05-30 04:02:00,66.5,64.7,30.10,North,32767,-999.0,0.0,94,0.00,,,0.00,Wunderground v.1.15,2013-05-30 08:02:00,
2013-05-30 04:04:00,66.5,64.7,30.10,North,32767,-999.0,0.0,94,0.00,,,0.00,Wunderground v.1.15,2013-05-30 08:04:00,
2013-05-30 04:08:00,66.4,64.6,30.09,North,32767,-999.0,0.0,94,0.00,,,0.00,Wunderground v.1.15,2013-05-30 08:08:00,
2013-05-30 04:10:00,66.4,64.6,30.09,North,32767,-999.0,0.0,94,0.00,,,0.00,Wunderground v.1.15,2013-05-30 08:10:00,
2013-05-30 04:12:00,66.4,64.6,30.09,North,32767,-999.0,0.0,94,0.00,,,0.00,Wunderground v.1.15,2013-05-30 08:12:00,
2013-05-30 04:14:00,66.3,64.5,30.09,North,32767,-999.0,0.0,94,0.00,,,0.00,Wunderground v.1.15,2013-05-30 08:14:00,
2013-05-30 04:16:00,66.3,64.5,30.09,North,32767,-999.0,0.0,94,0.00,,,0.00,Wunderground v.1.15,2013-05-30 08:16:00,
2013-05-30 04:18:00,66.2,64.4,30.10,North,32767,-999.0,0.0,94,0.00,,,0.00,Wunderground v.1.15,2013-05-30 08:18:00,
2013-05-30 04:22:00,66.1,64.3,30.10,North,32767,-999.0,0.0,94,0.00,,,0.00,Wunderground v.1.15,2013-05-30 08:22:00,
2013-05-30 04:24:00,66.1,64.3,30.10,North,32767,-999.0,0.0,94,0.00,,,0.00,Wunderground v.1.15,2013-05-30 08:24:00,
2013-05-30 04:28:00,66.0,64.2,30.09,North,32767,-999.0,0.0,94,0.00,,,0.00,Wunderground v.1.15,2013-05-30 08:28:00,
2013-05-30 04:30:00,65.9,64.1,30.10,North,32767,-999.0,0.0,94,0.00,,,0.00,Wunderground v.1.15,2013-05-30 08:30:00,
2013-05-30 04:36:00,65.8,63.7,30.10,North,32767,-999.0,0.0,93,0.00,,,0.00,Wunderground v.1.15,2013-05-30 08:36:00,
2013-05-30 04:38:00,65.7,63.6,30.10,North,32767,-999.0,0.0,93,0.00,,,0.00,Wunderground v.1.15,2013-05-30 08:38:00,
2013-05-30 04:39:00,65.7,63.6,30.10,North,32767,-999.0,0.0,93,0.00,,,0.00,Wunderground v.1.15,2013-05-30 08:39:00,
2013-05-30 04:42:00,65.6,63.5,30.10,North,32767,-999.0,0.0,93,0.00,,,0.00,Wunderground v.1.15,2013-05-30 08:42:00,
2013-05-30 04:44:00,65.6,63.5,30.10,North,32767,-999.0,0.0,93,0.00,,,0.00,Wunderground v.1.15,2013-05-30 08:44:00,
2013-05-30 04:45:00,65.6,63.8,30.10,North,32767,-999.0,0.0,94,0.00,,,0.00,Wunderground v.1.15,2013-05-30 08:45:00,
2013-05-30 04:50:00,65.4,63.6,30.10,North,32767,-999.0,0.0,94,0.00,,,0.00,Wunderground v.1.15,2013-05-30 08:50:00,
2013-05-30 04:52:00,65.4,63.3,30.10,North,32767,-999.0,0.0,93,0.00,,,0.00,Wunderground v.1.15,2013-05-30 08:52:00,
2013-05-30 04:54:00,65.4,63.3,30.10,North,32767,-999.0,0.0,93,0.00,,,0.00,Wunderground v.1.15,2013-05-30 08:54:00,
2013-05-30 04:56:00,65.3,63.2,30.10,North,32767,-999.0,0.0,93,0.00,,,0.00,Wunderground v.1.15,2013-05-30 08:56:00,
2013-05-30 04:58:00,65.2,63.1,30.10,North,32767,-999.0,0.0,93,0.00,,,0.00,Wunderground v.1.15,2013-05-30 08:58:00,
2013-05-30 05:00:00,65.2,63.1,30.11,North,32767,-999.0,0.0,93,0.00,,,0.00,Wunderground v.1.15,2013-05-30 09:00:00,
2013-05-30 05:04:00,65.1,63.0,30.11,North,32767,-999.0,0.0,93,0.00,,,0.00,Wunderground v.1.15,2013-05-30 09:04:00,
2013-05-30 05:06:00,65.0,62.9,30.11,North,32767,-999.0,0.0,93,0.00,,,0.00,Wunderground v.1.15,2013-05-30 09:06:00,
2013-05-30 05:10:00,65.0,62.9,30.11,North,32767,-999.0,0.0,93,0.00,,,0.00,Wunderground v.1.15,2013-05-30 09:10:00,
2013-05-30 05:12:00,64.9,62.8,30.11,North,32767,-999.0,0.0,93,0.00,,,0.00,Wunderground v.1.15,2013-05-30 09:12:00,
2013-05-30 05:14:00,64.9,62.8,30.11,North,32767,-999.0,0.0,93,0.00,,,0.00,Wunderground v.1.15,2013-05-30 09:14:00,
2013-05-30 05:16:00,64.9,63.1,30.11,North,32767,-999.0,0.0,94,0.00,,,0.00,Wunderground v.1.15,2013-05-30 09:16:00,
2013-05-30 05:18:00,64.9,63.1,30.11,North,32767,-999.0,0.0,94,0.00,,,0.00,Wunderground v.1.15,2013-05-30 09:18:00,
2013-05-30 05:20:00,64.8,63.0,30.11,North,32767,-999.0,0.0,94,0.00,,,0.00,Wunderground v.1.15,2013-05-30 09:20:00,
2013-05-30 05:23:00,64.8,63.0,30.11,North,32767,-999.0,0.0,94,0.00,,,0.00,Wunderground v.1.15,2013-05-30 09:23:00,
2013-05-30 05:26:00,64.8,63.0,30.11,North,32767,-999.0,0.0,94,0.00,,,0.00,Wunderground v.1.15,2013-05-30 09:26:00,
2013-05-30 05:28:00,64.7,62.9,30.11,North,32767,-999.0,0.0,94,0.00,,,0.00,Wunderground v.1.15,2013-05-30 09:28:00,
2013-05-30 05:30:00,64.7,62.9,30.11,North,32767,-999.0,0.0,94,0.00,,,0.00,Wunderground v.1.15,2013-05-30 09:30:00,
2013-05-30 05:34:00,64.6,62.8,30.11,North,32767,-999.0,0.0,94,0.00,,,0.00,Wunderground v.1.15,2013-05-30 09:34:00,
2013-05-30 05:36:00,64.6,62.8,30.11,North,32767,-999.0,0.0,94,0.00,,,0.00,Wunderground v.1.15,2013-05-30 09:36:00,
2013-05-30 05:38:00,64.6,62.8,30.11,North,32767,-999.0,0.0,94,0.00,,,0.00,Wunderground v.1.15,2013-05-30 09:38:00,
2013-05-30 05:39:00,64.5,62.7,30.11,North,32767,-999.0,0.0,94,0.00,,,0.00,Wunderground v.1.15,2013-05-30 09:39:00,
2013-05-30 05:44:00,64.4,62.6,30.12,North,32767,-999.0,0.0,94,0.00,,,0.00,Wunderground v.1.15,2013-05-30 09:44:00,
2013-05-30 05:45:00,64.4,62.6,30.12,North,32767,-999.0,0.0,94,0.00,,,0.00,Wunderground v.1.15,2013-05-30 09:45:00,
2013-05-30 05:50:00,64.3,62.5,30.12,North,32767,-999.0,0.0,94,0.00,,,0.00,Wunderground v.1.15,2013-05-30 09:50:00,
2013-05-30 05:54:00,64.3,62.5,30.12,North,32767,-999.0,0.0,94,0.00,,,0.00,Wunderground v.1.15,2013-05-30 09:54:00,
2013-05-30 05:56:00,64.2,62.4,30.12,North,32767,-999.0,0.0,94,0.00,,,0.00,Wunderground v.1.15,2013-05-30 09:56:00,
2013-05-30 05:58:00,64.2,62.4,30.13,North,32767,-999.0,0.0,94,0.00,,,0.00,Wunderground v.1.15,2013-05-30 09:58:00,
2013-05-30 06:00:00,64.1,62.3,30.12,North,32767,-999.0,0.0,94,0.00,,,0.00,Wunderground v.1.15,2013-05-30 10:00:00,
2013-05-30 06:04:00,64.1,62.3,30.13,North,32767,-999.0,0.0,94,0.00,,,0.00,Wunderground v.1.15,2013-05-30 10:04:00,
2013-05-30 06:06:00,64.1,62.3,30.13,North,32767,-999.0,0.0,94,0.00,,,0.00,Wunderground v.1.15,2013-05-30 10:06:00,
2013-05-30 06:08:00,64.0,62.2,30.13,North,32767,-999.0,0.0,94,0.00,,,0.00,Wunderground v.1.15,2013-05-30 10:08:00,
2013-05-30 06:10:00,64.0,62.2,30.13,North,32767,-999.0,0.0,94,0.00,,,0.00,Wunderground v.1.15,2013-05-30 10:10:00,
2013-05-30 06:16:00,64.0,62.2,30.13,North,32767,-999.0,0.0,94,0.00,,,0.00,Wunderground v.1.15,2013-05-30 10:16:00,
2013-05-30 06:20:00,64.0,62.2,30.13,North,32767,-999.0,0.0,94,0.00,,,0.00,Wunderground v.1.15,2013-05-30 10:20:00,
2013-05-30 06:22:00,64.0,62.2,30.13,North,32767,-999.0,0.0,94,0.00,,,0.00,Wunderground v.1.15,2013-05-30 10:22:00,
2013-05-30 06:23:00,64.0,62.2,30.13,North,32767,-999.0,0.0,94,0.00,,,0.00,Wunderground v.1.15,2013-05-30 10:23:00,
2013-05-30 06:30:00,64.0,62.2,30.13,North,32767,-999.0,0.0,94,0.00,,,0.00,Wunderground v.1.15,2013-05-30 10:30:00,
2013-05-30 06:32:00,64.0,62.2,30.13,North,32767,-999.0,0.0,94,0.00,,,0.00,Wunderground v.1.15,2013-05-30 10:32:00,
2013-05-30 06:33:00,64.0,62.2,30.13,North,32767,-999.0,0.0,94,0.00,,,0.00,Wunderground v.1.15,2013-05-30 10:33:00,
2013-05-30 06:38:00,64.0,62.2,30.13,North,32767,-999.0,0.0,94,0.00,,,0.00,Wunderground v.1.15,2013-05-30 10:38:00,
2013-05-30 06:39:00,64.0,62.2,30.13,North,32767,-999.0,0.0,94,0.00,,,0.00,Wunderground v.1.15,2013-05-30 10:39:00,
2013-05-30 06:42:00,64.0,62.2,30.13,North,32767,-999.0,0.0,94,0.00,,,0.00,Wunderground v.1.15,2013-05-30 10:42:00,
2013-05-30 06:44:00,64.0,62.5,30.13,North,32767,-999.0,0.0,95,0.00,,,0.00,Wunderground v.1.15,2013-05-30 10:44:00,
2013-05-30 06:45:00,64.0,62.5,30.13,North,32767,-999.0,0.0,95,0.00,,,0.00,Wunderground v.1.15,2013-05-30 10:45:00,
2013-05-30 06:48:00,64.1,62.6,30.13,North,32767,-999.0,0.0,95,0.00,,,0.00,Wunderground v.1.15,2013-05-30 10:48:00,
2013-05-30 06:52:00,64.1,62.6,30.13,North,32767,-999.0,0.0,95,0.00,,,0.00,Wunderground v.1.15,2013-05-30 10:52:00,
2013-05-30 06:54:00,64.2,62.7,30.13,North,32767,-999.0,0.0,95,0.00,,,0.00,Wunderground v.1.15,2013-05-30 10:54:00,
2013-05-30 06:56:00,64.2,62.7,30.13,North,32767,-999.0,0.0,95,0.00,,,0.00,Wunderground v.1.15,2013-05-30 10:56:00,
2013-05-30 06:58:00,64.3,62.8,30.13,North,32767,-999.0,0.0,95,0.00,,,0.00,Wunderground v.1.15,2013-05-30 10:58:00,
2013-05-30 07:04:00,64.3,62.8,30.14,North,32767,-999.0,0.0,95,0.00,,,0.00,Wunderground v.1.15,2013-05-30 11:04:00,
2013-05-30 07:06:00,64.3,62.8,30.14,North,32767,-999.0,0.0,95,0.00,,,0.00,Wunderground v.1.15,2013-05-30 11:06:00,
2013-05-30 07:08:00,64.3,62.8,30.14,North,32767,-999.0,0.0,95,0.00,,,0.00,Wunderground v.1.15,2013-05-30 11:08:00,
2013-05-30 07:12:00,64.4,62.9,30.14,North,32767,-999.0,0.0,95,0.00,,,0.00,Wunderground v.1.15,2013-05-30 11:12:00,
2013-05-30 07:14:00,64.4,62.9,30.14,North,32767,-999.0,0.0,95,0.00,,,0.00,Wunderground v.1.15,2013-05-30 11:14:00,
2013-05-30 07:18:00,64.4,62.9,30.14,North,32767,-999.0,0.0,95,0.00,,,0.00,Wunderground v.1.15,2013-05-30 11:18:00,
2013-05-30 07:20:00,64.5,63.0,30.14,North,32767,-999.0,0.0,95,0.00,,,0.00,Wunderground v.1.15,2013-05-30 11:20:00,
2013-05-30 07:22:00,64.5,63.3,30.14,North,32767,-999.0,0.0,96,0.00,,,0.00,Wunderground v.1.15,2013-05-30 11:22:00,
2013-05-30 07:26:00,64.6,63.1,30.14,North,32767,-999.0,0.0,95,0.00,,,0.00,Wunderground v.1.15,2013-05-30 11:26:00,
2013-05-30 07:28:00,64.7,63.5,30.14,North,32767,-999.0,0.0,96,0.00,,,0.00,Wunderground v.1.15,2013-05-30 11:28:00,
2013-05-30 07:30:00,64.7,63.5,30.14,North,32767,-999.0,0.0,96,0.00,,,0.00,Wunderground v.1.15,2013-05-30 11:30:00,
2013-05-30 07:32:00,64.7,63.5,30.14,North,32767,-999.0,0.0,96,0.00,,,0.00,Wunderground v.1.15,2013-05-30 11:32:00,
2013-05-30 07:33:00,64.8,63.6,30.14,North,32767,-999.0,0.0,96,0.00,,,0.00,Wunderground v.1.15,2013-05-30 11:33:00,
2013-05-30 07:38:00,64.9,63.7,30.14,North,32767,-999.0,0.0,96,0.00,,,0.00,Wunderground v.1.15,2013-05-30 11:38:00,
2013-05-30 07:40:00,64.9,63.7,30.14,North,32767,-999.0,0.0,96,0.00,,,0.00,Wunderground v.1.15,2013-05-30 11:40:00,
2013-05-30 07:42:00,65.0,63.8,30.14,North,32767,-999.0,0.0,96,0.00,,,0.00,Wunderground v.1.15,2013-05-30 11:42:00,
2013-05-30 07:46:00,65.1,63.9,30.14,North,32767,-999.0,0.0,96,0.00,,,0.00,Wunderground v.1.15,2013-05-30 11:46:00,
2013-05-30 07:48:00,65.2,64.0,30.14,North,32767,-999.0,0.0,96,0.00,,,0.00,Wunderground v.1.15,2013-05-30 11:48:00,
2013-05-30 07:53:00,65.5,64.3,30.14,North,32767,-999.0,0.0,96,0.00,,,0.00,Wunderground v.1.15,2013-05-30 11:53:00,
2013-05-30 07:56:00,65.6,64.4,30.14,North,32767,-999.0,0.0,96,0.00,,,0.00,Wunderground v.1.15,2013-05-30 11:56:00,
2013-05-30 07:58:00,65.7,64.5,30.14,North,32767,-999.0,0.0,96,0.00,,,0.00,Wunderground v.1.15,2013-05-30 11:58:00,
2013-05-30 07:59:00,65.8,64.9,30.14,North,32767,-999.0,0.0,97,0.00,,,0.00,Wunderground v.1.15,2013-05-30 11:59:00,
2013-05-30 08:01:00,65.8,64.9,30.15,North,32767,-999.0,0.0,97,0.00,,,0.00,Wunderground v.1.15,2013-05-30 12:01:00,
2013-05-30 08:04:00,65.9,65.0,30.14,North,32767,-999.0,0.0,97,0.00,,,0.00,Wunderground v.1.15,2013-05-30 12:04:00,
2013-05-30 08:06:00,66.1,65.2,30.14,North,32767,-999.0,0.0,97,0.00,,,0.00,Wunderground v.1.15,2013-05-30 12:06:00,
2013-05-30 08:08:00,66.2,65.3,30.15,North,32767,-999.0,0.0,97,0.00,,,0.00,Wunderground v.1.15,2013-05-30 12:08:00,
2013-05-30 08:12:00,66.3,65.4,30.14,North,32767,-999.0,0.0,97,0.00,,,0.00,Wunderground v.1.15,2013-05-30 12:12:00,
2013-05-30 08:14:00,66.5,65.6,30.14,North,32767,-999.0,0.0,97,0.00,,,0.00,Wunderground v.1.15,2013-05-30 12:14:00,
2013-05-30 08:20:00,66.8,65.9,30.14,North,32767,-999.0,0.0,97,0.00,,,0.00,Wunderground v.1.15,2013-05-30 12:20:00,
2013-05-30 08:26:00,67.1,66.2,30.15,North,32767,-999.0,0.0,97,0.00,,,0.00,Wunderground v.1.15,2013-05-30 12:26:00,
2013-05-30 08:28:00,67.2,66.3,30.14,North,32767,-999.0,0.0,97,0.00,,,0.00,Wunderground v.1.15,2013-05-30 12:28:00,
2013-05-30 08:32:00,67.4,66.5,30.15,North,32767,-999.0,0.0,97,0.00,,,0.00,Wunderground v.1.15,2013-05-30 12:32:00,
2013-05-30 08:33:00,67.5,66.6,30.15,North,32767,-999.0,0.0,97,0.00,,,0.00,Wunderground v.1.15,2013-05-30 12:33:00,
2013-05-30 08:38:00,67.8,66.9,30.15,North,32767,-999.0,0.0,97,0.00,,,0.00,Wunderground v.1.15,2013-05-30 12:38:00,
2013-05-30 08:39:00,67.9,67.0,30.15,North,32767,-999.0,0.0,97,0.00,,,0.00,Wunderground v.1.15,2013-05-30 12:39:00,
2013-05-30 08:42:00,68.0,67.1,30.15,North,32767,-999.0,0.0,97,0.00,,,0.00,Wunderground v.1.15,2013-05-30 12:42:00,
2013-05-30 08:46:00,68.1,67.2,30.15,North,32767,-999.0,0.0,97,0.00,,,0.00,Wunderground v.1.15,2013-05-30 12:46:00,
2013-05-30 08:48:00,68.3,67.4,30.15,North,32767,-999.0,0.0,97,0.00,,,0.00,Wunderground v.1.15,2013-05-30 12:48:00,
2013-05-30 08:52:00,68.5,67.6,30.15,North,32767,-999.0,0.0,97,0.00,,,0.00,Wunderground v.1.15,2013-05-30 12:52:00,
2013-05-30 08:58:00,70.1,68.6,30.14,North,32767,-999.0,0.0,95,0.00,,,0.00,Wunderground v.1.15,2013-05-30 12:58:00,
2013-05-30 09:00:00,70.8,68.7,30.14,North,32767,-999.0,0.0,93,0.00,,,0.00,Wunderground v.1.15,2013-05-30 13:00:00,
2013-05-30 09:02:00,71.2,68.4,30.14,North,32767,-999.0,0.0,91,0.00,,,0.00,Wunderground v.1.15,2013-05-30 13:02:00,
2013-05-30 09:04:00,71.3,68.2,30.14,North,32767,-999.0,0.0,90,0.00,,,0.00,Wunderground v.1.15,2013-05-30 13:04:00,
2013-05-30 09:06:00,71.7,68.0,30.14,North,32767,-999.0,0.0,88,0.00,,,0.00,Wunderground v.1.15,2013-05-30 13:06:00,
2013-05-30 09:08:00,72.5,67.7,30.14,North,32767,-999.0,0.0,85,0.00,,,0.00,Wunderground v.1.15,2013-05-30 13:08:00,
2013-05-30 09:10:00,72.9,67.8,30.15,North,32767,-999.0,0.0,84,0.00,,,0.00,Wunderground v.1.15,2013-05-30 13:10:00,
2013-05-30 09:13:00,73.2,68.1,30.15,North,32767,-999.0,0.0,84,0.00,,,0.00,Wunderground v.1.15,2013-05-30 13:13:00,
2013-05-30 09:18:00,73.5,68.4,30.14,North,32767,-999.0,0.0,84,0.00,,,0.00,Wunderground v.1.15,2013-05-30 13:18:00,
2013-05-30 09:20:00,73.5,68.0,30.14,North,32767,-999.0,0.0,83,0.00,,,0.00,Wunderground v.1.15,2013-05-30 13:20:00,
2013-05-30 09:22:00,73.5,68.0,30.14,North,32767,-999.0,0.0,83,0.00,,,0.00,Wunderground v.1.15,2013-05-30 13:22:00,
2013-05-30 09:25:00,73.6,67.8,30.14,North,32767,-999.0,0.0,82,0.00,,,0.00,Wunderground v.1.15,2013-05-30 13:25:00,
2013-05-30 09:28:00,73.8,68.0,30.14,North,32767,-999.0,0.0,82,0.00,,,0.00,Wunderground v.1.15,2013-05-30 13:28:00,
2013-05-30 09:32:00,74.1,68.6,30.14,North,32767,-999.0,0.0,83,0.00,,,0.00,Wunderground v.1.15,2013-05-30 13:32:00,
2013-05-30 09:36:00,74.4,68.2,30.14,North,32767,-999.0,0.0,81,0.00,,,0.00,Wunderground v.1.15,2013-05-30 13:36:00,
2013-05-30 09:38:00,74.7,68.8,30.14,North,32767,-999.0,0.0,82,0.00,,,0.00,Wunderground v.1.15,2013-05-30 13:38:00,
2013-05-30 09:42:00,74.9,68.3,30.14,North,32767,-999.0,0.0,80,0.00,,,0.00,Wunderground v.1.15,2013-05-30 13:42:00,
2013-05-30 09:44:00,75.0,68.4,30.14,North,32767,-999.0,0.0,80,0.00,,,0.00,Wunderground v.1.15,2013-05-30 13:44:00,
2013-05-30 09:46:00,75.2,68.2,30.14,North,32767,-999.0,0.0,79,0.00,,,0.00,Wunderground v.1.15,2013-05-30 13:46:00,
2013-05-30 09:50:00,75.4,68.4,30.14,North,32767,-999.0,0.0,79,0.00,,,0.00,Wunderground v.1.15,2013-05-30 13:50:00,
2013-05-30 09:52:00,75.6,68.6,30.14,North,32767,-999.0,0.0,79,0.00,,,0.00,Wunderground v.1.15,2013-05-30 13:52:00,
2013-05-30 09:54:00,75.8,68.8,30.14,North,32767,-999.0,0.0,79,0.00,,,0.00,Wunderground v.1.15,2013-05-30 13:54:00,
2013-05-30 09:58:00,76.2,68.1,30.14,North,32767,-999.0,0.0,76,0.00,,,0.00,Wunderground v.1.15,2013-05-30 13:58:00,
2013-05-30 10:00:00,76.3,68.2,30.14,North,32767,-999.0,0.0,76,0.00,,,0.00,Wunderground v.1.15,2013-05-30 14:00:00,
2013-05-30 10:02:00,76.6,68.8,30.14,North,32767,-999.0,0.0,77,0.00,,,0.00,Wunderground v.1.15,2013-05-30 14:02:00,
2013-05-30 10:04:00,76.7,68.2,30.14,North,32767,-999.0,0.0,75,0.00,,,0.00,Wunderground v.1.15,2013-05-30 14:04:00,
2013-05-30 10:06:00,76.8,68.7,30.14,North,32767,-999.0,0.0,76,0.00,,,0.00,Wunderground v.1.15,2013-05-30 14:06:00,
2013-05-30 10:08:00,77.0,69.2,30.14,North,32767,-999.0,0.0,77,0.00,,,0.00,Wunderground v.1.15,2013-05-30 14:08:00,
2013-05-30 10:10:00,77.1,69.3,30.14,North,32767,-999.0,0.0,77,0.00,,,0.00,Wunderground v.1.15,2013-05-30 14:10:00,
2013-05-30 10:12:00,77.3,68.8,30.14,North,32767,-999.0,0.0,75,0.00,,,0.00,Wunderground v.1.15,2013-05-30 14:12:00,
2013-05-30 10:13:00,77.4,69.6,30.14,North,32767,-999.0,0.0,77,0.00,,,0.00,Wunderground v.1.15,2013-05-30 14:13:00,
2013-05-30 10:15:00,77.5,68.9,30.14,North,32767,-999.0,0.0,75,0.00,,,0.00,Wunderground v.1.15,2013-05-30 14:15:00,
2013-05-30 10:19:00,77.6,69.0,30.14,North,32767,-999.0,0.0,75,0.00,,,0.00,Wunderground v.1.15,2013-05-30 14:19:00,
2013-05-30 10:22:00,77.8,69.2,30.14,North,32767,-999.0,0.0,75,0.00,,,0.00,Wunderground v.1.15,2013-05-30 14:22:00,
2013-05-30 10:25:00,78.1,69.9,30.14,North,32767,-999.0,0.0,76,0.00,,,0.00,Wunderground v.1.15,2013-05-30 14:25:00,
2013-05-30 10:28:00,78.2,69.6,30.14,North,32767,-999.0,0.0,75,0.00,,,0.00,Wunderground v.1.15,2013-05-30 14:28:00,
2013-05-30 10:30:00,78.3,70.1,30.14,North,32767,-999.0,0.0,76,0.00,,,0.00,Wunderground v.1.15,2013-05-30 14:30:00,
2013-05-30 10:34:00,78.7,70.1,30.14,North,32767,-999.0,0.0,75,0.00,,,0.00,Wunderground v.1.15,2013-05-30 14:34:00,
2013-05-30 10:36:00,78.9,70.7,30.14,North,32767,-999.0,0.0,76,0.00,,,0.00,Wunderground v.1.15,2013-05-30 14:36:00,
2013-05-30 10:40:00,78.8,70.2,30.14,North,32767,-999.0,0.0,75,0.00,,,0.00,Wunderground v.1.15,2013-05-30 14:40:00,
2013-05-30 10:44:00,78.9,70.3,30.14,North,32767,-999.0,0.0,75,0.00,,,0.00,Wunderground v.1.15,2013-05-30 14:44:00,
2013-05-30 10:46:00,79.1,68.9,30.14,North,32767,-999.0,0.0,71,0.00,,,0.00,Wunderground v.1.15,2013-05-30 14:46:00,
2013-05-30 10:50:00,79.4,69.6,30.14,North,32767,-999.0,0.0,72,0.00,,,0.00,Wunderground v.1.15,2013-05-30 14:50:00,
2013-05-30 10:52:00,79.5,70.1,30.14,North,32767,-999.0,0.0,73,0.00,,,0.00,Wunderground v.1.15,2013-05-30 14:52:00,
2013-05-30 10:54:00,79.5,70.1,30.14,North,32767,-999.0,0.0,73,0.00,,,0.00,Wunderground v.1.15,2013-05-30 14:54:00,
2013-05-30 10:58:00,79.9,71.3,30.14,North,32767,-999.0,0.0,75,0.00,,,0.00,Wunderground v.1.15,2013-05-30 14:58:00,
2013-05-30 11:00:00,80.2,70.4,30.14,North,32767,-999.0,0.0,72,0.00,,,0.00,Wunderground v.1.15,2013-05-30 15:00:00,
2013-05-30 11:02:00,80.5,69.4,30.14,North,32767,-999.0,0.0,69,0.00,,,0.00,Wunderground v.1.15,2013-05-30 15:02:00,
2013-05-30 11:04:00,80.6,69.9,30.14,North,32767,-999.0,0.0,70,0.00,,,0.00,Wunderground v.1.15,2013-05-30 15:04:00,
2013-05-30 11:10:00,80.9,70.6,30.14,North,32767,-999.0,0.0,71,0.00,,,0.00,Wunderground v.1.15,2013-05-30 15:10:00,
2013-05-30 11:12:00,81.1,71.6,30.14,North,32767,-999.0,0.0,73,0.00,,,0.00,Wunderground v.1.15,2013-05-30 15:12:00,
2013-05-30 11:13:00,81.2,70.5,30.14,North,32767,-999.0,0.0,70,0.00,,,0.00,Wunderground v.1.15,2013-05-30 15:13:00,
2013-05-30 11:18:00,81.3,70.2,30.13,North,32767,-999.0,0.0,69,0.00,,,0.00,Wunderground v.1.15,2013-05-30 15:18:00,
2013-05-30 11:19:00,81.5,71.2,30.14,North,32767,-999.0,0.0,71,0.00,,,0.00,Wunderground v.1.15,2013-05-30 15:19:00,
2013-05-30 11:22:00,81.7,71.0,30.14,North,32767,-999.0,0.0,70,0.00,,,0.00,Wunderground v.1.15,2013-05-30 15:22:00,
2013-05-30 11:25:00,82.1,69.6,30.14,North,32767,-999.0,0.0,66,0.00,,,0.00,Wunderground v.1.15,2013-05-30 15:25:00,
2013-05-30 11:28:00,82.0,70.0,30.14,North,32767,-999.0,0.0,67,0.00,,,0.00,Wunderground v.1.15,2013-05-30 15:28:00,
2013-05-30 11:30:00,82.3,70.7,30.14,North,32767,-999.0,0.0,68,0.00,,,0.00,Wunderground v.1.15,2013-05-30 15:30:00,
2013-05-30 11:31:00,82.5,70.4,30.14,North,32767,-999.0,0.0,67,0.00,,,0.00,Wunderground v.1.15,2013-05-30 15:31:00,
2013-05-30 11:38:00,83.1,71.0,30.14,North,32767,-999.0,0.0,67,0.00,,,0.00,Wunderground v.1.15,2013-05-30 15:38:00,
2013-05-30 11:40:00,83.3,71.6,30.14,North,32767,-999.0,0.0,68,0.00,,,0.00,Wunderground v.1.15,2013-05-30 15:40:00,
2013-05-30 11:42:00,83.6,71.9,30.14,North,32767,-999.0,0.0,68,0.00,,,0.00,Wunderground v.1.15,2013-05-30 15:42:00,
2013-05-30 11:44:00,83.7,72.0,30.14,North,32767,-999.0,0.0,68,0.00,,,0.00,Wunderground v.1.15,2013-05-30 15:44:00,
2013-05-30 11:46:00,83.6,69.2,30.14,North,32767,-999.0,0.0,62,0.00,,,0.00,Wunderground v.1.15,2013-05-30 15:46:00,
2013-05-30 11:48:00,83.6,70.1,30.14,North,32767,-999.0,0.0,64,0.00,,,0.00,Wunderground v.1.15,2013-05-30 15:48:00,
2013-05-30 11:50:00,83.4,69.9,30.14,North,32767,-999.0,0.0,64,0.00,,,0.00,Wunderground v.1.15,2013-05-30 15:50:00,
2013-05-30 11:52:00,83.5,70.0,30.14,North,32767,-999.0,0.0,64,0.00,,,0.00,Wunderground v.1.15,2013-05-30 15:52:00,
2013-05-30 11:56:00,84.1,72.0,30.14,North,32767,-999.0,0.0,67,0.00,,,0.00,Wunderground v.1.15,2013-05-30 15:56:00,
2013-05-30 11:58:00,84.3,71.7,30.14,North,32767,-999.0,0.0,66,0.00,,,0.00,Wunderground v.1.15,2013-05-30 15:58:00,
2013-05-30 12:02:00,85.0,73.7,30.13,North,32767,-999.0,0.0,69,0.00,,,0.00,Wunderground v.1.15,2013-05-30 16:02:00,
2013-05-30 12:04:00,85.2,72.6,30.14,North,32767,-999.0,0.0,66,0.00,,,0.00,Wunderground v.1.15,2013-05-30 16:04:00,
2013-05-30 12:06:00,85.5,72.8,30.13,North,32767,-999.0,0.0,66,0.00,,,0.00,Wunderground v.1.15,2013-05-30 16:06:00,
2013-05-30 12:10:00,85.2,68.8,30.13,North,32767,-999.0,0.0,58,0.00,,,0.00,Wunderground v.1.15,2013-05-30 16:10:00,
2013-05-30 12:15:00,85.5,70.0,30.13,North,32767,-999.0,0.0,60,0.00,,,0.00,Wunderground v.1.15,2013-05-30 16:15:00,
2013-05-30 12:18:00,85.2,68.8,30.13,North,32767,-999.0,0.0,58,0.00,,,0.00,Wunderground v.1.15,2013-05-30 16:18:00,
2013-05-30 12:22:00,85.7,72.1,30.13,North,32767,-999.0,0.0,64,0.00,,,0.00,Wunderground v.1.15,2013-05-30 16:22:00,
2013-05-30 12:26:00,85.8,69.3,30.13,North,32767,-999.0,0.0,58,0.00,,,0.00,Wunderground v.1.15,2013-05-30 16:26:00,
2013-05-30 12:28:00,85.7,70.7,30.13,North,32767,-999.0,0.0,61,0.00,,,0.00,Wunderground v.1.15,2013-05-30 16:28:00,
2013-05-30 12:32:00,86.0,70.0,30.13,North,32767,-999.0,0.0,59,0.00,,,0.00,Wunderground v.1.15,2013-05-30 16:32:00,
2013-05-30 12:34:00,86.2,71.2,30.13,North,32767,-999.0,0.0,61,0.00,,,0.00,Wunderground v.1.15,2013-05-30 16:34:00,
2013-05-30 12:36:00,86.2,68.7,30.13,North,32767,-999.0,0.0,56,0.00,,,0.00,Wunderground v.1.15,2013-05-30 16:36:00,
2013-05-30 12:42:00,86.5,72.4,30.13,North,32767,-999.0,0.0,63,0.00,,,0.00,Wunderground v.1.15,2013-05-30 16:42:00,
2013-05-30 12:44:00,86.4,69.4,30.13,North,32767,-999.0,0.0,57,0.00,,,0.00,Wunderground v.1.15,2013-05-30 16:44:00,
2013-05-30 12:46:00,86.5,71.0,30.13,North,32767,-999.0,0.0,60,0.00,,,0.00,Wunderground v.1.15,2013-05-30 16:46:00,
2013-05-30 12:50:00,86.5,71.9,30.13,North,32767,-999.0,0.0,62,0.00,,,0.00,Wunderground v.1.15,2013-05-30 16:50:00,
2013-05-30 12:53:00,86.7,71.2,30.13,North,32767,-999.0,0.0,60,0.00,,,0.00,Wunderground v.1.15,2013-05-30 16:53:00,
2013-05-30 12:58:00,86.5,70.0,30.13,SSE,155,0.0,0.0,58,0.00,,,0.00,Wunderground v.1.15,2013-05-30 16:58:00,
2013-05-30 13:01:00,86.9,71.3,30.12,SSE,159,0.0,4.0,60,0.00,,,0.00,Wunderground v.1.15,2013-05-30 17:01:00,
2013-05-30 13:03:00,86.7,70.2,30.12,SSW,200,1.0,4.0,58,0.00,,,0.00,Wunderground v.1.15,2013-05-30 17:03:00,
2013-05-30 13:05:00,86.7,72.1,30.12,SE,143,1.0,4.0,62,0.00,,,0.00,Wunderground v.1.15,2013-05-30 17:05:00,
2013-05-30 13:08:00,86.9,72.8,30.12,South,183,1.0,4.0,63,0.00,,,0.00,Wunderground v.1.15,2013-05-30 17:08:00,
2013-05-30 13:14:00,86.3,70.8,30.12,South,172,1.0,1.0,60,0.00,,,0.00,Wunderground v.1.15,2013-05-30 17:14:00,
2013-05-30 13:16:00,85.9,70.9,30.12,South,187,1.0,1.0,61,0.00,,,0.00,Wunderground v.1.15,2013-05-30 17:16:00,
2013-05-30 13:20:00,85.1,71.1,30.12,South,183,1.0,1.0,63,0.00,,,0.00,Wunderground v.1.15,2013-05-30 17:20:00,
2013-05-30 13:21:00,84.8,70.8,30.12,South,183,1.0,1.0,63,0.00,,,0.00,Wunderground v.1.15,2013-05-30 17:21:00,
2013-05-30 13:24:00,84.5,71.0,30.12,South,182,0.0,1.0,64,0.00,,,0.00,Wunderground v.1.15,2013-05-30 17:24:00,
2013-05-30 13:26:00,84.3,71.2,30.12,SSE,155,0.0,1.0,65,0.00,,,0.00,Wunderground v.1.15,2013-05-30 17:26:00,
2013-05-30 13:30:00,84.4,69.5,30.12,SSE,155,0.0,0.0,61,0.00,,,0.00,Wunderground v.1.15,2013-05-30 17:30:00,
2013-05-30 13:36:00,84.8,72.6,30.11,South,184,0.0,1.0,67,0.00,,,0.00,Wunderground v.1.15,2013-05-30 17:36:00,
2013-05-30 13:40:00,86.1,73.0,30.11,SSE,161,0.0,0.0,65,0.00,,,0.00,Wunderground v.1.15,2013-05-30 17:40:00,
2013-05-30 13:42:00,86.3,74.5,30.11,SSE,162,0.0,1.0,68,0.00,,,0.00,Wunderground v.1.15,2013-05-30 17:42:00,
2013-05-30 13:44:00,86.4,74.1,30.11,SSW,199,0.0,10.0,67,0.00,,,0.00,Wunderground v.1.15,2013-05-30 17:44:00,
2013-05-30 13:50:00,86.7,72.6,30.11,SSW,194,1.0,1.0,63,0.00,,,0.00,Wunderground v.1.15,2013-05-30 17:50:00,
2013-05-30 13:52:00,86.8,72.2,30.11,SSE,155,1.0,1.0,62,0.00,,,0.00,Wunderground v.1.15,2013-05-30 17:52:00,
2013-05-30 13:56:00,87.4,70.8,30.11,SE,127,0.0,1.0,58,0.00,,,0.00,Wunderground v.1.15,2013-05-30 17:56:00,
2013-05-30 13:58:00,87.5,72.4,30.11,SE,136,0.0,1.0,61,0.00,,,0.00,Wunderground v.1.15,2013-05-30 17:58:00,
2013-05-30 14:02:00,87.7,71.1,30.11,SSE,161,1.0,1.0,58,0.00,,,0.00,Wunderground v.1.15,2013-05-30 18:02:00,
2013-05-30 14:06:00,87.1,70.5,30.11,SSE,163,0.0,1.0,58,0.00,,,0.00,Wunderground v.1.15,2013-05-30 18:06:00,
2013-05-30 14:08:00,86.5,71.5,30.11,SSE,161,0.0,1.0,61,0.00,,,0.00,Wunderground v.1.15,2013-05-30 18:08:00,
2013-05-30 14:12:00,85.2,72.1,30.11,SSE,158,0.0,0.0,65,0.00,,,0.00,Wunderground v.1.15,2013-05-30 18:12:00,
2013-05-30 14:13:00,85.2,70.7,30.11,SSE,159,0.0,0.0,62,0.00,,,0.00,Wunderground v.1.15,2013-05-30 18:13:00,
2013-05-30 14:16:00,85.8,73.1,30.11,South,173,0.0,0.0,66,0.00,,,0.00,Wunderground v.1.15,2013-05-30 18:16:00,
2013-05-30 14:19:00,86.8,71.7,30.11,South,182,1.0,3.0,61,0.00,,,0.00,Wunderground v.1.15,2013-05-30 18:19:00,
2013-05-30 14:24:00,87.5,69.9,30.11,South,188,1.0,3.0,56,0.00,,,0.00,Wunderground v.1.15,2013-05-30 18:24:00,
2013-05-30 14:26:00,87.5,71.9,30.11,South,188,0.0,3.0,60,0.00,,,0.00,Wunderground v.1.15,2013-05-30 18:26:00,
2013-05-30 14:28:00,87.3,71.7,30.11,South,188,0.0,3.0,60,0.00,,,0.00,Wunderground v.1.15,2013-05-30 18:28:00,
2013-05-30 14:32:00,87.3,70.7,30.11,South,181,0.0,0.0,58,0.00,,,0.00,Wunderground v.1.15,2013-05-30 18:32:00,
2013-05-30 14:34:00,86.9,69.3,30.11,South,172,0.0,0.0,56,0.00,,,0.00,Wunderground v.1.15,2013-05-30 18:34:00,
2013-05-30 14:35:00,86.3,71.7,30.11,South,173,0.0,0.0,62,0.00,,,0.00,Wunderground v.1.15,2013-05-30 18:35:00,
2013-05-30 14:40:00,85.1,69.7,30.11,SSE,168,0.0,0.0,60,0.00,,,0.00,Wunderground v.1.15,2013-05-30 18:40:00,
2013-05-30 14:41:00,84.7,72.5,30.10,SSE,168,0.0,0.0,67,0.00,,,0.00,Wunderground v.1.15,2013-05-30 18:41:00,
2013-05-30 14:44:00,84.2,74.2,30.10,SSE,168,0.0,0.0,72,0.00,,,0.00,Wunderground v.1.15,2013-05-30 18:44:00,
2013-05-30 14:50:00,84.7,69.8,30.10,SSE,168,0.0,0.0,61,0.00,,,0.00,Wunderground v.1.15,2013-05-30 18:50:00,
2013-05-30 14:52:00,84.7,72.1,30.10,SSE,168,0.0,0.0,66,0.00,,,0.00,Wunderground v.1.15,2013-05-30 18:52:00,
2013-05-30 14:54:00,84.7,71.2,30.10,SSE,168,0.0,0.0,64,0.00,,,0.00,Wunderground v.1.15,2013-05-30 18:54:00,
2013-05-30 14:58:00,84.7,69.8,30.10,South,182,0.0,0.0,61,0.00,,,0.00,Wunderground v.1.15,2013-05-30 18:58:00,
2013-05-30 15:00:00,84.8,70.8,30.10,South,182,0.0,0.0,63,0.00,,,0.00,Wunderground v.1.15,2013-05-30 19:00:00,
2013-05-30 15:04:00,84.9,69.9,30.10,SSE,165,0.0,1.0,61,0.00,,,0.00,Wunderground v.1.15,2013-05-30 19:04:00,
2013-05-30 15:08:00,85.0,67.5,30.10,SSW,194,0.0,1.0,56,0.00,,,0.00,Wunderground v.1.15,2013-05-30 19:08:00,
2013-05-30 15:10:00,85.0,67.5,30.10,SW,216,0.0,0.0,56,0.00,,,0.00,Wunderground v.1.15,2013-05-30 19:10:00,
2013-05-30 15:14:00,85.7,67.7,30.09,SW,216,0.0,0.0,55,0.00,,,0.00,Wunderground v.1.15,2013-05-30 19:14:00,
2013-05-30 15:16:00,86.2,68.1,30.09,South,182,0.0,0.0,55,0.00,,,0.00,Wunderground v.1.15,2013-05-30 19:16:00,
2013-05-30 15:18:00,86.9,67.7,30.09,SSE,161,0.0,0.0,53,0.00,,,0.00,Wunderground v.1.15,2013-05-30 19:18:00,
2013-05-30 15:20:00,87.2,69.1,30.09,SSE,161,0.0,0.0,55,0.00,,,0.00,Wunderground v.1.15,2013-05-30 19:20:00,
2013-05-30 15:24:00,87.7,65.6,30.09,SSE,157,0.0,0.0,48,0.00,,,0.00,Wunderground v.1.15,2013-05-30 19:24:00,
2013-05-30 15:26:00,87.8,68.0,30.09,West,271,0.0,0.0,52,0.00,,,0.00,Wunderground v.1.15,2013-05-30 19:26:00,
2013-05-30 15:29:00,88.1,68.3,30.09,West,271,0.0,0.0,52,0.00,,,0.00,Wunderground v.1.15,2013-05-30 19:29:00,
2013-05-30 15:32:00,87.9,68.6,30.09,SSE,164,0.0,0.0,53,0.00,,,0.00,Wunderground v.1.15,2013-05-30 19:32:00,
2013-05-30 15:35:00,88.1,68.3,30.09,SW,228,0.0,1.0,52,0.00,,,0.00,Wunderground v.1.15,2013-05-30 19:35:00,
2013-05-30 15:38:00,88.3,67.3,30.08,WSW,244,0.0,1.0,50,0.00,,,0.00,Wunderground v.1.15,2013-05-30 19:38:00,
2013-05-30 15:41:00,88.2,66.6,30.08,WSW,256,0.0,0.0,49,0.00,,,0.00,Wunderground v.1.15,2013-05-30 19:41:00,
2013-05-30 15:46:00,88.3,67.9,30.08,WNW,283,0.0,3.0,51,0.00,,,0.00,Wunderground v.1.15,2013-05-30 19:46:00,
2013-05-30 15:48:00,87.9,65.8,30.08,SE,141,0.0,3.0,48,0.00,,,0.00,Wunderground v.1.15,2013-05-30 19:48:00,
2013-05-30 15:50:00,87.7,64.4,30.08,SSE,157,0.0,0.0,46,0.00,,,0.00,Wunderground v.1.15,2013-05-30 19:50:00,
2013-05-30 15:52:00,87.5,67.1,30.08,SSE,157,0.0,0.0,51,0.00,,,0.00,Wunderground v.1.15,2013-05-30 19:52:00,
2013-05-30 15:54:00,87.2,65.1,30.08,SSE,157,0.0,0.0,48,0.00,,,0.00,Wunderground v.1.15,2013-05-30 19:54:00,
2013-05-30 15:56:00,87.3,67.5,30.08,SSE,157,0.0,0.0,52,0.00,,,0.00,Wunderground v.1.15,2013-05-30 19:56:00,
2013-05-30 15:58:00,87.3,66.4,30.08,WSW,242,0.0,2.0,50,0.00,,,0.00,Wunderground v.1.15,2013-05-30 19:58:00,
2013-05-30 16:00:00,87.4,67.1,30.08,WSW,248,0.0,0.0,51,0.00,,,0.00,Wunderground v.1.15,2013-05-30 20:00:00,
2013-05-30 16:02:00,87.5,67.7,30.08,SSW,212,0.0,0.0,52,0.00,,,0.00,Wunderground v.1.15,2013-05-30 20:02:00,
2013-05-30 16:04:00,87.4,67.6,30.08,WSW,257,0.0,3.0,52,0.00,,,0.00,Wunderground v.1.15,2013-05-30 20:04:00,
2013-05-30 16:06:00,87.4,67.6,30.08,WSW,257,0.0,3.0,52,0.00,,,0.00,Wunderground v.1.15,2013-05-30 20:06:00,
2013-05-30 16:08:00,87.1,65.6,30.08,South,179,0.0,3.0,49,0.00,,,0.00,Wunderground v.1.15,2013-05-30 20:08:00,
2013-05-30 16:10:00,87.1,65.6,30.08,SSE,162,0.0,2.0,49,0.00,,,0.00,Wunderground v.1.15,2013-05-30 20:10:00,
2013-05-30 16:12:00,87.1,67.3,30.08,SSE,165,0.0,2.0,52,0.00,,,0.00,Wunderground v.1.15,2013-05-30 20:12:00,
2013-05-30 16:16:00,86.9,66.0,30.08,WSW,258,0.0,2.0,50,0.00,,,0.00,Wunderground v.1.15,2013-05-30 20:16:00,
2013-05-30 16:18:00,87.0,67.8,30.08,SSE,148,1.0,2.0,53,0.00,,,0.00,Wunderground v.1.15,2013-05-30 20:18:00,
2013-05-30 16:19:00,86.9,66.6,30.08,WSW,242,1.0,2.0,51,0.00,,,0.00,Wunderground v.1.15,2013-05-30 20:19:00,
2013-05-30 16:22:00,86.9,66.6,30.08,WSW,251,1.0,2.0,51,0.00,,,0.00,Wunderground v.1.15,2013-05-30 20:22:00,
2013-05-30 16:23:00,87.0,66.1,30.08,South,173,1.0,2.0,50,0.00,,,0.00,Wunderground v.1.15,2013-05-30 20:23:00,
2013-05-30 16:25:00,86.9,67.7,30.08,South,169,1.0,2.0,53,0.00,,,0.00,Wunderground v.1.15,2013-05-30 20:25:00,
2013-05-30 16:28:00,86.8,65.9,30.08,West,267,1.0,2.0,50,0.00,,,0.00,Wunderground v.1.15,2013-05-30 20:28:00,
2013-05-30 16:31:00,87.0,65.5,30.08,SSE,150,1.0,1.0,49,0.00,,,0.00,Wunderground v.1.15,2013-05-30 20:31:00,
2013-05-30 16:36:00,87.1,66.2,30.08,West,269,1.0,2.0,50,0.00,,,0.00,Wunderground v.1.15,2013-05-30 20:36:00,
2013-05-30 16:38:00,87.2,66.3,30.08,West,267,1.0,5.0,50,0.00,,,0.00,Wunderground v.1.15,2013-05-30 20:38:00,
2013-05-30 16:40:00,87.1,65.6,30.08,West,270,1.0,1.0,49,0.00,,,0.00,Wunderground v.1.15,2013-05-30 20:40:00,
2013-05-30 16:42:00,87.0,64.9,30.08,SSE,164,1.0,1.0,48,0.00,,,0.00,Wunderground v.1.15,2013-05-30 20:42:00,
2013-05-30 16:44:00,87.0,65.5,30.08,South,170,1.0,1.0,49,0.00,,,0.00,Wunderground v.1.15,2013-05-30 20:44:00,
2013-05-30 16:46:00,87.1,65.6,30.08,NW,311,2.0,2.0,49,0.00,,,0.00,Wunderground v.1.15,2013-05-30 20:46:00,
2013-05-30 16:48:00,87.1,65.0,30.08,WNW,299,2.0,2.0,48,0.00,,,0.00,Wunderground v.1.15,2013-05-30 20:48:00,
2013-05-30 16:50:00,87.0,66.1,30.08,WNW,299,1.0,1.0,50,0.00,,,0.00,Wunderground v.1.15,2013-05-30 20:50:00,
2013-05-30 16:52:00,86.6,67.4,30.08,WNW,299,1.0,1.0,53,0.00,,,0.00,Wunderground v.1.15,2013-05-30 20:52:00,
2013-05-30 16:54:00,86.6,65.7,30.08,SSW,200,1.0,1.0,50,0.00,,,0.00,Wunderground v.1.15,2013-05-30 20:54:00,
2013-05-30 16:58:00,86.6,66.9,30.08,North,350,1.0,3.0,52,0.00,,,0.00,Wunderground v.1.15,2013-05-30 20:58:00,
2013-05-30 17:00:00,86.7,64.7,30.08,SE,128,1.0,1.0,48,0.00,,,0.00,Wunderground v.1.15,2013-05-30 21:00:00,
2013-05-30 17:04:00,86.5,66.2,30.08,SSE,167,1.0,1.0,51,0.00,,,0.00,Wunderground v.1.15,2013-05-30 21:04:00,
2013-05-30 17:08:00,86.3,65.5,30.08,SSE,153,0.0,3.0,50,0.00,,,0.00,Wunderground v.1.15,2013-05-30 21:08:00,
2013-05-30 17:10:00,86.2,65.9,30.08,SSE,160,0.0,0.0,51,0.00,,,0.00,Wunderground v.1.15,2013-05-30 21:10:00,
2013-05-30 17:14:00,86.0,65.2,30.08,SSE,160,0.0,0.0,50,0.00,,,0.00,Wunderground v.1.15,2013-05-30 21:14:00,
2013-05-30 17:16:00,86.1,65.3,30.08,SSE,159,0.0,0.0,50,0.00,,,0.00,Wunderground v.1.15,2013-05-30 21:16:00,
2013-05-30 17:18:00,86.2,64.8,30.08,SSE,159,0.0,0.0,49,0.00,,,0.00,Wunderground v.1.15,2013-05-30 21:18:00,
2013-05-30 17:19:00,86.2,65.9,30.07,SSE,159,0.0,0.0,51,0.00,,,0.00,Wunderground v.1.15,2013-05-30 21:19:00,
2013-05-30 17:24:00,86.0,64.6,30.07,SSE,157,0.0,0.0,49,0.00,,,0.00,Wunderground v.1.15,2013-05-30 21:24:00,
2013-05-30 17:25:00,86.0,65.8,30.07,SSE,160,0.0,0.0,51,0.00,,,0.00,Wunderground v.1.15,2013-05-30 21:25:00,
2013-05-30 17:28:00,86.0,64.6,30.07,WSW,246,0.0,3.0,49,0.00,,,0.00,Wunderground v.1.15,2013-05-30 21:28:00,
2013-05-30 17:31:00,85.9,65.7,30.07,WSW,249,1.0,3.0,51,0.00,,,0.00,Wunderground v.1.15,2013-05-30 21:31:00,
2013-05-30 17:34:00,85.9,66.2,30.07,WSW,250,1.0,3.0,52,0.00,,,0.00,Wunderground v.1.15,2013-05-30 21:34:00,
2013-05-30 17:36:00,85.7,64.9,30.07,WSW,250,1.0,3.0,50,0.00,,,0.00,Wunderground v.1.15,2013-05-30 21:36:00,
2013-05-30 17:41:00,85.7,66.0,30.07,SW,232,1.0,2.0,52,0.00,,,0.00,Wunderground v.1.15,2013-05-30 21:41:00,
2013-05-30 17:44:00,85.7,64.9,30.07,SW,232,1.0,2.0,50,0.00,,,0.00,Wunderground v.1.15,2013-05-30 21:44:00,
2013-05-30 17:46:00,85.5,64.7,30.07,SW,232,1.0,2.0,50,0.00,,,0.00,Wunderground v.1.15,2013-05-30 21:46:00,
2013-05-30 17:49:00,85.2,65.6,30.07,SW,232,0.0,0.0,52,0.00,,,0.00,Wunderground v.1.15,2013-05-30 21:49:00,
2013-05-30 17:51:00,85.1,64.4,30.07,SW,232,0.0,0.0,50,0.00,,,0.00,Wunderground v.1.15,2013-05-30 21:51:00,
2013-05-30 17:55:00,85.0,64.3,30.07,SW,232,0.0,0.0,50,0.00,,,0.00,Wunderground v.1.15,2013-05-30 21:55:00,
2013-05-30 17:58:00,85.1,66.0,30.07,SW,232,0.0,0.0,53,0.00,,,0.00,Wunderground v.1.15,2013-05-30 21:58:00,
2013-05-30 18:00:00,85.0,66.5,30.07,SW,232,0.0,0.0,54,0.00,,,0.00,Wunderground v.1.15,2013-05-30 22:00:00,
2013-05-30 18:04:00,84.8,66.3,30.07,SSW,202,0.0,0.0,54,0.00,,,0.00,Wunderground v.1.15,2013-05-30 22:04:00,
2013-05-30 18:06:00,84.8,65.8,30.07,SSW,202,0.0,0.0,53,0.00,,,0.00,Wunderground v.1.15,2013-05-30 22:06:00,
2013-05-30 18:10:00,84.8,65.8,30.07,SSW,202,0.0,0.0,53,0.00,,,0.00,Wunderground v.1.15,2013-05-30 22:10:00,
2013-05-30 18:12:00,84.9,64.8,30.07,SSW,202,0.0,0.0,51,0.00,,,0.00,Wunderground v.1.15,2013-05-30 22:12:00,
2013-05-30 18:14:00,84.8,65.8,30.07,SSW,202,0.0,0.0,53,0.00,,,0.00,Wunderground v.1.15,2013-05-30 22:14:00,
2013-05-30 18:20:00,85.1,65.5,30.07,SSW,192,0.0,0.0,52,0.00,,,0.00,Wunderground v.1.15,2013-05-30 22:20:00,
2013-05-30 18:22:00,85.1,65.5,30.07,SSW,192,0.0,0.0,52,0.00,,,0.00,Wunderground v.1.15,2013-05-30 22:22:00,
2013-05-30 18:26:00,84.9,63.6,30.07,SSW,192,0.0,0.0,49,0.00,,,0.00,Wunderground v.1.15,2013-05-30 22:26:00,
2013-05-30 18:30:00,84.8,65.2,30.07,SSW,192,0.0,0.0,52,0.00,,,0.00,Wunderground v.1.15,2013-05-30 22:30:00,
2013-05-30 18:32:00,84.7,65.1,30.07,SSW,192,0.0,0.0,52,0.00,,,0.00,Wunderground v.1.15,2013-05-30 22:32:00,
2013-05-30 18:33:00,84.5,64.4,30.07,SSE,159,0.0,0.0,51,0.00,,,0.00,Wunderground v.1.15,2013-05-30 22:33:00,
2013-05-30 18:38:00,84.4,65.4,30.07,SSE,160,0.0,0.0,53,0.00,,,0.00,Wunderground v.1.15,2013-05-30 22:38:00,
2013-05-30 18:42:00,84.3,65.3,30.07,SSE,162,0.0,0.0,53,0.00,,,0.00,Wunderground v.1.15,2013-05-30 22:42:00,
2013-05-30 18:44:00,84.2,64.7,30.07,SSE,159,0.0,0.0,52,0.00,,,0.00,Wunderground v.1.15,2013-05-30 22:44:00,
2013-05-30 18:45:00,84.1,65.1,30.07,SSE,159,0.0,0.0,53,0.00,,,0.00,Wunderground v.1.15,2013-05-30 22:45:00,
2013-05-30 18:49:00,83.8,64.8,30.07,South,175,0.0,0.0,53,0.00,,,0.00,Wunderground v.1.15,2013-05-30 22:49:00,
2013-05-30 18:51:00,83.7,65.3,30.07,South,175,0.0,0.0,54,0.00,,,0.00,Wunderground v.1.15,2013-05-30 22:51:00,
2013-05-30 18:54:00,83.5,65.6,30.07,South,175,0.0,0.0,55,0.00,,,0.00,Wunderground v.1.15,2013-05-30 22:54:00,
2013-05-30 18:58:00,83.2,65.4,30.07,SSE,161,0.0,0.0,55,0.00,,,0.00,Wunderground v.1.15,2013-05-30 22:58:00,
2013-05-30 18:59:00,83.2,65.4,30.07,SSE,161,0.0,0.0,55,0.00,,,0.00,Wunderground v.1.15,2013-05-30 22:59:00,
2013-05-30 19:01:00,83.2,64.8,30.07,SSE,162,0.0,0.0,54,0.00,,,0.00,Wunderground v.1.15,2013-05-30 23:01:00,
2013-05-30 19:04:00,83.2,65.4,30.07,SSE,162,0.0,0.0,55,0.00,,,0.00,Wunderground v.1.15,2013-05-30 23:04:00,
2013-05-30 19:08:00,83.2,65.9,30.07,SSE,163,0.0,0.0,56,0.00,,,0.00,Wunderground v.1.15,2013-05-30 23:08:00,
2013-05-30 19:12:00,82.9,65.6,30.07,SSE,164,0.0,0.0,56,0.00,,,0.00,Wunderground v.1.15,2013-05-30 23:12:00,
2013-05-30 19:14:00,82.8,65.5,30.07,SSE,167,0.0,0.0,56,0.00,,,0.00,Wunderground v.1.15,2013-05-30 23:14:00,
2013-05-30 19:16:00,82.7,65.4,30.07,SSE,167,0.0,0.0,56,0.00,,,0.00,Wunderground v.1.15,2013-05-30 23:16:00,
2013-05-30 19:18:00,82.6,64.8,30.07,SSE,153,0.0,0.0,55,0.00,,,0.00,Wunderground v.1.15,2013-05-30 23:18:00,
2013-05-30 19:22:00,82.5,65.7,30.07,SSE,153,0.0,1.0,57,0.00,,,0.00,Wunderground v.1.15,2013-05-30 23:22:00,
2013-05-30 19:24:00,82.4,65.6,30.08,SSE,153,0.0,1.0,57,0.00,,,0.00,Wunderground v.1.15,2013-05-30 23:24:00,
2013-05-30 19:30:00,81.9,65.7,30.08,SSE,153,0.0,0.0,58,0.00,,,0.00,Wunderground v.1.15,2013-05-30 23:30:00,
2013-05-30 19:34:00,81.6,65.9,30.08,SSE,152,0.0,0.0,59,0.00,,,0.00,Wunderground v.1.15,2013-05-30 23:34:00,
2013-05-30 19:38:00,81.5,65.8,30.08,SSE,152,0.0,1.0,59,0.00,,,0.00,Wunderground v.1.15,2013-05-30 23:38:00,
2013-05-30 19:42:00,81.3,66.1,30.08,SSE,152,0.0,0.0,60,0.00,,,0.00,Wunderground v.1.15,2013-05-30 23:42:00,
2013-05-30 19:43:00,81.2,66.0,30.08,SSE,152,0.0,0.0,60,0.00,,,0.00,Wunderground v.1.15,2013-05-30 23:43:00,
2013-05-30 19:46:00,81.2,65.5,30.08,SSE,152,0.0,0.0,59,0.00,,,0.00,Wunderground v.1.15,2013-05-30 23:46:00,
2013-05-30 19:48:00,81.1,65.9,30.08,SSE,152,0.0,0.0,60,0.00,,,0.00,Wunderground v.1.15,2013-05-30 23:48:00,
2013-05-30 19:51:00,80.8,66.1,30.08,SSE,152,0.0,0.0,61,0.00,,,0.00,Wunderground v.1.15,2013-05-30 23:51:00,
2013-05-30 19:55:00,80.4,65.7,30.08,SSE,152,0.0,0.0,61,0.00,,,0.00,Wunderground v.1.15,2013-05-30 23:55:00,
2013-05-30 19:58:00,80.3,66.1,30.08,SSE,152,0.0,0.0,62,0.00,,,0.00,Wunderground v.1.15,2013-05-30 23:58:00,
2013-05-30 20:00:00,80.2,66.0,30.08,SSE,152,0.0,0.0,62,0.00,,,0.00,Wunderground v.1.15,2013-05-31 00:00:00,
2013-05-30 20:04:00,80.0,65.8,30.08,SSE,152,0.0,0.0,62,0.00,,,0.00,Wunderground v.1.15,2013-05-31 00:04:00,
2013-05-30 20:06:00,79.8,65.6,30.08,SSE,152,0.0,0.0,62,0.00,,,0.00,Wunderground v.1.15,2013-05-31 00:06:00,
2013-05-30 20:08:00,79.7,66.0,30.08,SSE,152,0.0,0.0,63,0.00,,,0.00,Wunderground v.1.15,2013-05-31 00:08:00,
2013-05-30 20:14:00,79.2,65.5,30.08,SSE,152,0.0,0.0,63,0.00,,,0.00,Wunderground v.1.15,2013-05-31 00:14:00,
2013-05-30 20:18:00,78.9,65.2,30.08,SSE,152,0.0,0.0,63,0.00,,,0.00,Wunderground v.1.15,2013-05-31 00:18:00,
2013-05-30 20:22:00,79.0,65.3,30.08,SSE,152,0.0,0.0,63,0.00,,,0.00,Wunderground v.1.15,2013-05-31 00:22:00,
2013-05-30 20:24:00,79.0,65.3,30.08,SSE,152,0.0,0.0,63,0.00,,,0.00,Wunderground v.1.15,2013-05-31 00:24:00,
2013-05-30 20:30:00,78.7,66.4,30.08,SSE,152,0.0,0.0,66,0.00,,,0.00,Wunderground v.1.15,2013-05-31 00:30:00,
2013-05-30 20:32:00,78.4,66.5,30.08,SSE,152,0.0,0.0,67,0.00,,,0.00,Wunderground v.1.15,2013-05-31 00:32:00,
2013-05-30 20:33:00,78.2,66.3,30.08,SSE,152,0.0,0.0,67,0.00,,,0.00,Wunderground v.1.15,2013-05-31 00:33:00,
2013-05-30 20:38:00,77.8,66.0,30.08,SSE,152,0.0,0.0,67,0.00,,,0.00,Wunderground v.1.15,2013-05-31 00:38:00,
2013-05-30 20:39:00,77.7,65.9,30.08,SSE,152,0.0,0.0,67,0.00,,,0.00,Wunderground v.1.15,2013-05-31 00:39:00,
2013-05-30 20:43:00,77.6,65.8,30.08,SSE,152,0.0,0.0,67,0.00,,,0.00,Wunderground v.1.15,2013-05-31 00:43:00,
2013-05-30 20:46:00,77.5,65.7,30.08,SSE,152,0.0,0.0,67,0.00,,,0.00,Wunderground v.1.15,2013-05-31 00:46:00,
2013-05-30 20:49:00,77.3,65.5,30.08,SSE,152,0.0,0.0,67,0.00,,,0.00,Wunderground v.1.15,2013-05-31 00:49:00,
2013-05-30 20:51:00,77.3,65.5,30.08,SSE,152,0.0,0.0,67,0.00,,,0.00,Wunderground v.1.15,2013-05-31 00:51:00,
2013-05-30 20:54:00,77.1,65.3,30.08,SSE,152,0.0,0.0,67,0.00,,,0.00,Wunderground v.1.15,2013-05-31 00:54:00,
2013-05-30 21:00:00,76.5,65.6,30.08,SSE,152,0.0,0.0,69,0.00,,,0.00,Wunderground v.1.15,2013-05-31 01:00:00,
2013-05-30 21:02:00,76.3,65.4,30.08,SSE,152,0.0,0.0,69,0.00,,,0.00,Wunderground v.1.15,2013-05-31 01:02:00,
2013-05-30 21:04:00,76.1,65.6,30.08,SSE,152,0.0,0.0,70,0.00,,,0.00,Wunderground v.1.15,2013-05-31 01:04:00,
2013-05-30 21:06:00,76.0,65.5,30.08,SSE,152,0.0,0.0,70,0.00,,,0.00,Wunderground v.1.15,2013-05-31 01:06:00,
2013-05-30 21:10:00,76.0,65.5,30.08,SSE,152,0.0,0.0,70,0.00,,,0.00,Wunderground v.1.15,2013-05-31 01:10:00,
2013-05-30 21:16:00,75.9,65.4,30.08,SSE,152,0.0,0.0,70,0.00,,,0.00,Wunderground v.1.15,2013-05-31 01:16:00,
2013-05-30 21:18:00,75.8,65.7,30.08,SSE,152,0.0,0.0,71,0.00,,,0.00,Wunderground v.1.15,2013-05-31 01:18:00,
2013-05-30 21:20:00,75.7,66.0,30.08,SSE,152,0.0,0.0,72,0.00,,,0.00,Wunderground v.1.15,2013-05-31 01:20:00,
2013-05-30 21:22:00,75.4,66.5,30.08,SSE,152,0.0,0.0,74,0.00,,,0.00,Wunderground v.1.15,2013-05-31 01:22:00,
2013-05-30 21:24:00,75.1,66.6,30.09,SSE,152,0.0,0.0,75,0.00,,,0.00,Wunderground v.1.15,2013-05-31 01:24:00,
2013-05-30 21:26:00,74.8,66.3,30.09,SSE,152,0.0,0.0,75,0.00,,,0.00,Wunderground v.1.15,2013-05-31 01:26:00,
2013-05-30 21:28:00,74.3,66.2,30.09,SSE,152,0.0,0.0,76,0.00,,,0.00,Wunderground v.1.15,2013-05-31 01:28:00,
2013-05-30 21:30:00,74.0,66.3,30.09,SSE,152,0.0,0.0,77,0.00,,,0.00,Wunderground v.1.15,2013-05-31 01:30:00,
2013-05-30 21:32:00,73.5,66.6,30.09,SSE,152,0.0,0.0,79,0.00,,,0.00,Wunderground v.1.15,2013-05-31 01:32:00,
2013-05-30 21:38:00,72.6,65.7,30.09,SSE,152,0.0,0.0,79,0.00,,,0.00,Wunderground v.1.15,2013-05-31 01:38:00,
2013-05-30 21:42:00,72.2,65.7,30.09,SSE,152,0.0,0.0,80,0.00,,,0.00,Wunderground v.1.15,2013-05-31 01:42:00,
2013-05-30 21:43:00,72.0,65.5,30.09,SSE,152,0.0,0.0,80,0.00,,,0.00,Wunderground v.1.15,2013-05-31 01:43:00,
2013-05-30 21:46:00,71.6,65.5,30.09,SSE,152,0.0,0.0,81,0.00,,,0.00,Wunderground v.1.15,2013-05-31 01:46:00,
2013-05-30 21:49:00,71.2,65.4,30.09,SSE,152,0.0,0.0,82,0.00,,,0.00,Wunderground v.1.15,2013-05-31 01:49:00,
2013-05-30 21:51:00,70.9,65.1,30.09,SSE,152,0.0,0.0,82,0.00,,,0.00,Wunderground v.1.15,2013-05-31 01:51:00,
2013-05-30 21:54:00,70.6,65.2,30.09,SSE,152,0.0,0.0,83,0.00,,,0.00,Wunderground v.1.15,2013-05-31 01:54:00,
2013-05-30 21:55:00,70.4,65.0,30.09,SSE,152,0.0,0.0,83,0.00,,,0.00,Wunderground v.1.15,2013-05-31 01:55:00,
2013-05-30 22:00:00,70.2,65.5,30.09,SSE,152,0.0,0.0,85,0.00,,,0.00,Wunderground v.1.15,2013-05-31 02:00:00,
2013-05-30 22:02:00,70.3,65.6,30.09,SSE,152,0.0,0.0,85,0.00,,,0.00,Wunderground v.1.15,2013-05-31 02:02:00,
2013-05-30 22:08:00,71.3,65.5,30.09,SSE,152,0.0,0.0,82,0.00,,,0.00,Wunderground v.1.15,2013-05-31 02:08:00,
2013-05-30 22:12:00,71.7,65.6,30.09,SSE,152,0.0,0.0,81,0.00,,,0.00,Wunderground v.1.15,2013-05-31 02:12:00,
2013-05-30 22:14:00,71.7,65.9,30.09,SSE,152,0.0,0.0,82,0.00,,,0.00,Wunderground v.1.15,2013-05-31 02:14:00,
2013-05-30 22:16:00,71.5,65.7,30.09,SSE,152,0.0,0.0,82,0.00,,,0.00,Wunderground v.1.15,2013-05-31 02:16:00,
2013-05-30 22:18:00,71.3,65.5,30.10,SSE,152,0.0,0.0,82,0.00,,,0.00,Wunderground v.1.15,2013-05-31 02:18:00,
2013-05-30 22:24:00,70.7,65.3,30.10,SSE,152,0.0,0.0,83,0.00,,,0.00,Wunderground v.1.15,2013-05-31 02:24:00,
2013-05-30 22:26:00,70.6,65.5,30.10,SSE,152,0.0,0.0,84,0.00,,,0.00,Wunderground v.1.15,2013-05-31 02:26:00,
2013-05-30 22:28:00,70.4,65.3,30.10,SSE,152,0.0,0.0,84,0.00,,,0.00,Wunderground v.1.15,2013-05-31 02:28:00,
2013-05-30 22:29:00,70.3,65.2,30.10,SSE,152,0.0,0.0,84,0.00,,,0.00,Wunderground v.1.15,2013-05-31 02:29:00,
2013-05-30 22:34:00,70.2,65.5,30.10,SSE,152,0.0,0.0,85,0.00,,,0.00,Wunderground v.1.15,2013-05-31 02:34:00,
2013-05-30 22:35:00,70.1,65.4,30.10,SSE,152,0.0,0.0,85,0.00,,,0.00,Wunderground v.1.15,2013-05-31 02:35:00,
2013-05-30 22:40:00,69.9,65.5,30.10,SSE,152,0.0,0.0,86,0.00,,,0.00,Wunderground v.1.15,2013-05-31 02:40:00,
2013-05-30 22:46:00,69.4,65.4,30.10,SSE,152,0.0,0.0,87,0.00,,,0.00,Wunderground v.1.15,2013-05-31 02:46:00,
2013-05-30 22:48:00,69.3,65.3,30.10,SSE,152,0.0,0.0,87,0.00,,,0.00,Wunderground v.1.15,2013-05-31 02:48:00,
2013-05-30 22:52:00,69.2,65.2,30.10,SSE,152,0.0,0.0,87,0.00,,,0.00,Wunderground v.1.15,2013-05-31 02:52:00,
2013-05-30 22:54:00,69.2,65.2,30.10,SSE,152,0.0,0.0,87,0.00,,,0.00,Wunderground v.1.15,2013-05-31 02:54:00,
2013-05-30 22:58:00,69.1,65.1,30.10,SSE,152,0.0,0.0,87,0.00,,,0.00,Wunderground v.1.15,2013-05-31 02:58:00,
2013-05-30 23:00:00,69.0,65.0,30.10,SSE,152,0.0,0.0,87,0.00,,,0.00,Wunderground v.1.15,2013-05-31 03:00:00,
2013-05-30 23:02:00,68.9,64.9,30.10,SSE,152,0.0,0.0,87,0.00,,,0.00,Wunderground v.1.15,2013-05-31 03:02:00,
2013-05-30 23:04:00,68.8,64.8,30.10,SSE,152,0.0,0.0,87,0.00,,,0.00,Wunderground v.1.15,2013-05-31 03:04:00,
2013-05-30 23:06:00,68.7,65.0,30.11,SSE,152,0.0,0.0,88,0.00,,,0.00,Wunderground v.1.15,2013-05-31 03:06:00,
2013-05-30 23:08:00,68.7,65.0,30.11,SSE,152,0.0,0.0,88,0.00,,,0.00,Wunderground v.1.15,2013-05-31 03:08:00,
2013-05-30 23:10:00,68.7,65.0,30.11,SSE,152,0.0,0.0,88,0.00,,,0.00,Wunderground v.1.15,2013-05-31 03:10:00,
2013-05-30 23:16:00,68.6,64.6,30.11,SSE,152,0.0,0.0,87,0.00,,,0.00,Wunderground v.1.15,2013-05-31 03:16:00,
2013-05-30 23:18:00,69.0,65.0,30.10,SSE,152,0.0,0.0,87,0.00,,,0.00,Wunderground v.1.15,2013-05-31 03:18:00,
2013-05-30 23:19:00,69.4,65.0,30.10,SSE,152,0.0,0.0,86,0.00,,,0.00,Wunderground v.1.15,2013-05-31 03:19:00,
2013-05-30 23:22:00,69.6,64.9,30.10,SSE,152,0.0,0.0,85,0.00,,,0.00,Wunderground v.1.15,2013-05-31 03:22:00,
2013-05-30 23:23:00,69.4,64.7,30.10,SSE,152,0.0,0.0,85,0.00,,,0.00,Wunderground v.1.15,2013-05-31 03:23:00,
2013-05-30 23:25:00,69.3,64.6,30.10,SSE,152,0.0,0.0,85,0.00,,,0.00,Wunderground v.1.15,2013-05-31 03:25:00,
2013-05-30 23:29:00,69.9,65.2,30.10,SSE,152,0.0,0.0,85,0.00,,,0.00,Wunderground v.1.15,2013-05-31 03:29:00,
2013-05-30 23:32:00,70.0,64.9,30.10,SSE,152,0.0,0.0,84,0.00,,,0.00,Wunderground v.1.15,2013-05-31 03:32:00,
2013-05-30 23:34:00,69.7,64.6,30.10,SSE,152,0.0,0.0,84,0.00,,,0.00,Wunderground v.1.15,2013-05-31 03:34:00,
2013-05-30 23:40:00,69.3,64.9,30.10,SSE,152,0.0,0.0,86,0.00,,,0.00,Wunderground v.1.15,2013-05-31 03:40:00,
2013-05-30 23:41:00,69.1,64.4,30.10,SSE,152,0.0,0.0,85,0.00,,,0.00,Wunderground v.1.15,2013-05-31 03:41:00,
2013-05-30 23:44:00,68.9,64.5,30.10,SSE,152,0.0,0.0,86,0.00,,,0.00,Wunderground v.1.15,2013-05-31 03:44:00,
2013-05-30 23:46:00,68.8,64.4,30.10,SSE,152,0.0,0.0,86,0.00,,,0.00,Wunderground v.1.15,2013-05-31 03:46:00,
2013-05-30 23:50:00,68.9,64.9,30.11,SSE,152,0.0,0.0,87,0.00,,,0.00,Wunderground v.1.15,2013-05-31 03:50:00,
2013-05-30 23:54:00,69.0,65.3,30.11,SSE,152,0.0,0.0,88,0.00,,,0.00,Wunderground v.1.15,2013-05-31 03:54:00,
2013-05-30 23:58:00,68.9,65.2,30.11,SSE,152,0.0,0.0,88,0.00,,,0.00,Wunderground v.1.15,2013-05-31 03:58:00,